Home > Products > Valid Products > TAF

000
FTUS43 KEAX 231700
TAFSTJ
TAF
KSTJ 231720Z 2318/2418 21008KT P6SM BKN020
     FM240000 18003KT P6SM BKN050
     FM240600 17002KT 4SM BR BKN025=



000
FTUS43 KEAX 231700
TAFMCI
TAF
KMCI 231720Z 2318/2418 21008KT P6SM BKN020
     FM240000 20006KT P6SM BKN050
     FM240600 19005KT 4SM BR BKN025=



000
FTUS43 KEAX 231700
TAFMKC
TAF
KMKC 231720Z 2318/2418 20008KT P6SM BKN020
     FM240000 19006KT P6SM BKN050
     FM240600 19005KT 4SM BR BKN025=



000
FTUS43 KEAX 231500 AAB
TAFMCI
TAF AMD
KMCI 231503Z 2315/2412 22009KT P6SM BKN020
     FM232100 20008KT P6SM SCT040
     FM240600 20008KT 4SM BR BKN025=



000
FTUS43 KEAX 231400 AAA
TAFMCI
TAF AMD
KMCI 231433Z 2315/2412 22009KT P6SM SCT080
     FM231530 20008KT P6SM BKN025
     FM232100 20008KT P6SM SCT040
     FM240600 20008KT 4SM BR BKN025=



000
FTUS43 KEAX 231400 AAA
TAFMCI
TAF AMD
KMCI 231433Z 2315/2412 22009KT P6SM SCT080
     FM231530 20008KT P6SM BKN025
     FM232100 20008KT P6SM SCT040
     FM240600 20008KT 4SM BR BKN025=



000
FTUS43 KEAX 231300 AAB
TAFSTJ
TAF AMD
KSTJ 231348Z 2314/2412 20009KT P6SM BKN025
     FM231800 20009KT P6SM SCT040=



000
FTUS43 KEAX 231200 AAA
TAFSTJ
TAF AMD
KSTJ 231250Z 2313/2412 00000KT 3SM BR BKN150
      TEMPO 2313/2314 1/2SM FG BKN002
     FM231500 22009KT P6SM BKN025
     FM231800 20009KT P6SM SCT040=



000
FTUS43 KEAX 231100
TAFMCI
TAF
KMCI 231120Z 2312/2412 16004KT P6SM FEW021 BKN040 OVC060
      TEMPO 2312/2314 5SM -SHRA BR BKN025
     FM231400 22009KT P6SM BKN025
     FM231800 20008KT P6SM SCT040=



000
FTUS43 KEAX 231100
TAFMKC
TAF
KMKC 231120Z 2312/2412 18006KT P6SM SCT016 OVC100
      TEMPO 2312/2314 5SM -SHRA BR BKN020
     FM231400 21009KT P6SM BKN030
     FM231800 20008KT P6SM SCT040=



000
FTUS43 KEAX 231100
TAFSTJ
TAF
KSTJ 231120Z 2312/2412 00000KT P6SM FEW060 BKN110
     FM231300 22009KT P6SM BKN025
     FM231800 20009KT P6SM SCT040=



000
FTUS43 KEAX 231000 AAC
TAFSTJ
TAF AMD
KSTJ 231020Z 2310/2406 00000KT P6SM FEW060 BKN110
      TEMPO 2310/2312 6SM -RA BR OVC040
     FM231400 22009KT P6SM BKN035
     FM231800 20009KT P6SM SCT040=



000
FTUS43 KEAX 231000 AAB
TAFMKC
TAF AMD
KMKC 231018Z 2310/2406 19007KT P6SM SCT023 BKN040 OVC050
      TEMPO 2310/2312 5SM -RA OVC020
     FM231400 21009KT P6SM BKN035
     FM231800 20008KT P6SM SCT040=



000
FTUS43 KEAX 231000 AAB
TAFMKC
TAF AMD
KMKC 231018Z 2310/2406 19007KT P6SM SCT023 BKN040 OVC050
      TEMPO 2310/2312 5SM -RA OVC020
     FM231400 21009KT P6SM BKN035
     FM231800 20008KT P6SM SCT040=



000
FTUS43 KEAX 230900 AAB
TAFSTJ
TAF AMD
KSTJ 230908Z 2309/2406 18009KT P6SM -RA OVC090
      TEMPO 2309/2311 5SM -RA BR OVC040
     FM231400 22009KT P6SM BKN035
     FM231800 20009KT P6SM SCT040=



000
FTUS43 KEAX 230900 AAA
TAFMKC
TAF AMD
KMKC 230906Z 2309/2406 19007KT P6SM SCT023 BKN040 OVC050
      TEMPO 2309/2312 5SM -RA OVC030
     FM231400 21009KT P6SM BKN035
     FM231800 20008KT P6SM SCT040=



000
FTUS43 KEAX 230900 AAA
TAFMCI
TAF AMD
KMCI 230906Z 2309/2406 31004KT P6SM -RA FEW021 BKN040 OVC060
      TEMPO 2310/2312 3SM RA OVC030
     FM231400 22009KT P6SM BKN035
     FM231800 20008KT P6SM SCT040=



000
FTUS43 KEAX 230600 AAA
TAFSTJ
TAF AMD
KSTJ 230657Z 2307/2406 17010KT 6SM -SHRA OVC045
      TEMPO 2307/2311 4SM -RA OVC030
     FM231400 22009KT P6SM BKN035
     FM231800 20009KT P6SM SCT040=



000
FTUS43 KEAX 230500
TAFMCI
TAF
KMCI 230520Z 2306/2406 14008KT P6SM BKN150
     FM230700 18010KT 6SM -SHRA OVC045
      TEMPO 2308/2312 5SM -SHRA OVC030
     FM231400 22009KT P6SM BKN035
     FM231800 20008KT P6SM SCT040=



000
FTUS43 KEAX 230500
TAFSTJ
TAF
KSTJ 230520Z 2306/2406 16005KT P6SM SCT070
     FM230630 17010KT 6SM -SHRA OVC045
      TEMPO 2307/2311 5SM -SHRA OVC030
     FM231400 22009KT P6SM BKN035
     FM231800 20009KT P6SM SCT040=



000
FTUS43 KEAX 230500
TAFMKC
TAF
KMKC 230520Z 2306/2406 16008KT P6SM SCT250
     FM230700 17009KT 6SM -SHRA OVC045
      TEMPO 2308/2312 5SM -SHRA OVC030
     FM231400 21009KT P6SM BKN035
     FM231800 20008KT P6SM SCT040=



000
FTUS43 KEAX 222300
TAFMKC
TAF
KMKC 222325Z 2300/2324 16008KT P6SM SCT250
     FM230630 17009KT 5SM -SHRA OVC025
     FM231400 21009KT P6SM BKN035
     FM231800 24008KT P6SM SCT040=



000
FTUS43 KEAX 222300
TAFSTJ
TAF
KSTJ 222325Z 2300/2324 15010KT P6SM SCT250
     FM230600 17009KT 5SM -SHRA OVC025
     FM231400 22010KT P6SM BKN035
     FM231800 23009KT P6SM SCT040=



000
FTUS43 KEAX 222300
TAFMCI
TAF
KMCI 222325Z 2300/2324 14011KT P6SM FEW050 SCT250
     FM230630 17010KT 5SM -SHRA OVC025
     FM231400 22009KT P6SM BKN035
     FM231800 24009KT P6SM SCT040=



000
FTUS43 KEAX 221700
TAFMCI
TAF
KMCI 221720Z 2218/2318 14011KT P6SM SCT050
     FM230600 17009KT 5SM -SHRA OVC025
     FM231500 18009KT P6SM OVC035=



000
FTUS43 KEAX 221700
TAFMKC
TAF
KMKC 221720Z 2218/2318 14011KT P6SM SCT050
     FM230700 17009KT 5SM -SHRA OVC025
     FM231500 18009KT P6SM BKN035=



000
FTUS43 KEAX 221700
TAFMCI
TAF
KMCI 221720Z 2218/2318 14011KT P6SM SCT050
     FM230600 17009KT 5SM -SHRA OVC025
     FM231500 18009KT P6SM OVC035=



000
FTUS43 KEAX 221700
TAFSTJ
TAF
KSTJ 221720Z 2218/2318 14011KT P6SM SCT050
     FM230600 17009KT 5SM -SHRA OVC025
     FM231500 18009KT P6SM OVC035=



000
FTUS43 KEAX 221700
TAFMKC
TAF
KMKC 221720Z 2218/2318 14011KT P6SM SCT050
     FM230700 17009KT 5SM -SHRA OVC025
     FM231500 18009KT P6SM BKN035=



000
FTUS43 KEAX 221700
TAFSTJ
TAF
KSTJ 221720Z 2218/2318 14011KT P6SM SCT050
     FM230600 17009KT 5SM -SHRA OVC025
     FM231500 18009KT P6SM OVC035=



000
FTUS43 KEAX 221100
TAFSTJ
TAF
KSTJ 221133Z 2212/2312 13008KT P6SM VCSH OVC040
     FM221700 15007KT P6SM SCT030
     FM230400 17005KT 5SM -RA BKN035=



000
FTUS43 KEAX 221100
TAFMCI
TAF
KMCI 221133Z 2212/2312 13010KT P6SM VCSH OVC040
     FM221700 15010KT P6SM SCT030
     FM230500 17005KT 5SM -RA BKN035=



000
FTUS43 KEAX 221100
TAFMKC
TAF
KMKC 221133Z 2212/2312 11006KT P6SM VCSH OVC045
     FM221700 16010KT P6SM SCT030
     FM230600 17005KT 5SM -RA BKN035=



000
FTUS43 KEAX 220500
TAFSTJ
TAF
KSTJ 220520Z 2206/2306 12009KT P6SM SKC
     FM221000 13008KT P6SM BKN050
     FM221200 14009KT P6SM VCSH BKN035
     FM221600 15007KT P6SM SCT030=



000
FTUS43 KEAX 220500
TAFMCI
TAF
KMCI 220520Z 2206/2306 12010KT P6SM SKC
     FM221000 13011KT P6SM BKN050
     FM221300 14011KT P6SM VCSH BKN035
     FM221700 15010KT P6SM SCT030=



000
FTUS43 KEAX 220500
TAFMKC
TAF
KMKC 220520Z 2206/2306 10010KT P6SM SKC
     FM221000 11012KT P6SM BKN050
     FM221300 13009KT P6SM VCSH BKN035
     FM221700 16010KT P6SM SCT030=



000
FTUS43 KEAX 220500
TAFMCI
TAF
KMCI 220520Z 2206/2306 12010KT P6SM SKC
     FM221000 13011KT P6SM BKN050
     FM221300 14011KT P6SM VCSH BKN035
     FM221700 15010KT P6SM SCT030=



000
FTUS43 KEAX 220500
TAFMKC
TAF
KMKC 220520Z 2206/2306 10010KT P6SM SKC
     FM221000 11012KT P6SM BKN050
     FM221300 13009KT P6SM VCSH BKN035
     FM221700 16010KT P6SM SCT030=



000
FTUS43 KEAX 220500
TAFSTJ
TAF
KSTJ 220520Z 2206/2306 12009KT P6SM SKC
     FM221000 13008KT P6SM BKN050
     FM221200 14009KT P6SM VCSH BKN035
     FM221600 15007KT P6SM SCT030=



000
FTUS43 KEAX 212300
TAFMKC
TAF
KMKC 212320Z 2200/2224 11005KT P6SM SKC
     FM221000 14012KT P6SM BKN050
     FM222000 15010KT P6SM SCT030=



000
FTUS43 KEAX 212300
TAFSTJ
TAF
KSTJ 212320Z 2200/2224 15003KT P6SM SKC
     FM221000 12004KT P6SM VCSH BKN050
     FM221600 15007KT P6SM SCT030=



000
FTUS43 KEAX 212300
TAFMKC
TAF
KMKC 212320Z 2200/2224 11005KT P6SM SKC
     FM221000 14012KT P6SM BKN050
     FM222000 15010KT P6SM SCT030=



000
FTUS43 KEAX 212300
TAFMCI
TAF
KMCI 212320Z 2200/2224 11005KT P6SM SKC
     FM221000 15012KT P6SM BKN050
     FM222000 15010KT P6SM SCT030=



000
FTUS43 KEAX 212300
TAFSTJ
TAF
KSTJ 212320Z 2200/2224 15003KT P6SM SKC
     FM221000 12004KT P6SM VCSH BKN050
     FM221600 15007KT P6SM SCT030=



000
FTUS43 KEAX 212300
TAFMCI
TAF
KMCI 212320Z 2200/2224 11005KT P6SM SKC
     FM221000 15012KT P6SM BKN050
     FM222000 15010KT P6SM SCT030=



000
FTUS43 KEAX 211700
TAFMKC
TAF
KMKC 211724Z 2118/2218 VRB03KT P6SM SKC
     FM220900 13006KT P6SM BKN050=



000
FTUS43 KEAX 211700
TAFMCI
TAF
KMCI 211724Z 2118/2218 11005KT P6SM SKC
     FM221000 13008KT P6SM BKN050=



000
FTUS43 KEAX 211700
TAFSTJ
TAF
KSTJ 211724Z 2118/2218 15003KT P6SM SKC
     FM221000 12004KT P6SM VCSH BKN050
     FM221600 14007KT P6SM SCT050=



000
FTUS43 KEAX 211200 AAA
TAFSTJ
TAF AMD
KSTJ 211214Z 2112/2212 00000KT 2SM BR FEW002
      TEMPO 2112/2113 1/2SM FG
     FM211400 13003KT P6SM SKC=



000
FTUS43 KEAX 211100
TAFSTJ
TAF
KSTJ 211122Z 2112/2212 00000KT 2SM BR FEW002
      TEMPO 2112/2113 1SM BR
     FM211400 13003KT P6SM SKC=



000
FTUS43 KEAX 211100
TAFMCI
TAF
KMCI 211122Z 2112/2212 00000KT P6SM SKC
     FM211400 12005KT P6SM SKC=



000
FTUS43 KEAX 211100
TAFMKC
TAF
KMKC 211122Z 2112/2212 00000KT P6SM SKC
     FM211400 12004KT P6SM SKC=



000
FTUS43 KEAX 211100
TAFMCI
TAF
KMCI 211122Z 2112/2212 00000KT P6SM SKC
     FM211400 12005KT P6SM SKC=



000
FTUS43 KEAX 211100
TAFSTJ
TAF
KSTJ 211122Z 2112/2212 00000KT 2SM BR FEW002
      TEMPO 2112/2113 1SM BR
     FM211400 13003KT P6SM SKC=



000
FTUS43 KEAX 211100
TAFMKC
TAF
KMKC 211122Z 2112/2212 00000KT P6SM SKC
     FM211400 12004KT P6SM SKC=



000
FTUS43 KEAX 211100 AAB
TAFSTJ
TAF AMD
KSTJ 211115Z 2111/2206 00000KT P6SM SKC
      TEMPO 2112/2113 1SM BR
     FM211300 13003KT P6SM SKC=



000
FTUS43 KEAX 211100 AAB
TAFSTJ
TAF AMD
KSTJ 211115Z 2111/2206 00000KT P6SM SKC
      TEMPO 2112/2113 1SM BR
     FM211300 13003KT P6SM SKC=



000
FTUS43 KEAX 211000 AAA
TAFMCI
TAF AMD
KMCI 211053Z 2111/2206 00000KT P6SM SKC
     FM211400 12005KT P6SM SKC=



000
FTUS43 KEAX 211000 AAA
TAFMKC
TAF AMD
KMKC 211053Z 2111/2206 00000KT P6SM SKC
     FM211400 12004KT P6SM SKC=



000
FTUS43 KEAX 211000 AAA
TAFMCI
TAF AMD
KMCI 211053Z 2111/2206 00000KT P6SM SKC
     FM211400 12005KT P6SM SKC=



000
FTUS43 KEAX 211000 AAA
TAFMKC
TAF AMD
KMKC 211053Z 2111/2206 00000KT P6SM SKC
     FM211400 12004KT P6SM SKC=



000
FTUS43 KEAX 210800 AAA
TAFSTJ
TAF AMD
KSTJ 210851Z 2109/2206 00000KT 1SM BR VV002
      TEMPO 2109/2113 1/4SM FG
     FM211300 13003KT P6SM SKC=



000
FTUS43 KEAX 210500
TAFMCI
TAF
KMCI 210520Z 2106/2206 00000KT P6SM SKC
      TEMPO 2110/2113 5SM BR
     FM211400 12005KT P6SM SKC=



000
FTUS43 KEAX 210500
TAFSTJ
TAF
KSTJ 210520Z 2106/2206 00000KT P6SM SKC
     FM210800 00000KT 6SM BR SKC
      TEMPO 2108/2110 3SM BR
     FM211000 VRB01KT 2SM BR SKC
      TEMPO 2110/2113 1/4SM FG
     FM211300 13003KT P6SM SKC=



000
FTUS43 KEAX 210500
TAFMKC
TAF
KMKC 210520Z 2106/2206 00000KT P6SM SKC
      TEMPO 2110/2113 5SM BR
     FM211400 12004KT P6SM SKC=



000
FTUS43 KEAX 202300
TAFMCI
TAF
KMCI 202333Z 2100/2124 03003KT P6SM SKC
      TEMPO 2110/2113 5SM BR
     FM211400 12005KT P6SM SKC=



000
FTUS43 KEAX 202300
TAFMKC
TAF
KMKC 202333Z 2100/2124 03003KT P6SM SKC
      TEMPO 2110/2113 5SM BR
     FM211400 12004KT P6SM SKC=



000
FTUS43 KEAX 202300
TAFSTJ
TAF
KSTJ 202333Z 2100/2124 03003KT P6SM SKC
     FM210800 00000KT 6SM BR SKC
      TEMPO 2108/2110 3SM BR
     FM211000 VRB01KT 2SM BR SKC
      TEMPO 2110/2113 1/4SM FG
     FM211300 13003KT P6SM SKC=



    US Dept of Commerce
    National Oceanic and Atmospheric Administration
    National Weather Service
    1325 East West Highway
    Silver Spring, MD 20910
    Page Author: NWS Internet Services Team
Disclaimer
Information Quality
Credits
Glossary
Privacy Policy
Freedom of Information Act (FOIA)
About Us
Career Opportunities